Time,TemperatureF,DewpointF,PressureIn,WindDirection,WindDirectionDegrees,WindSpeedMPH,WindSpeedGustMPH,Humidity,HourlyPrecipIn,Conditions,Clouds,dailyrainin,SoftwareType,DateUTC
2013-09-29 00:12:00,44.6,44.0,30.17,SSE,167,2.0,-999.0,97,-99.99,,,0.00,weatherlink.com 1.10,2013-09-29 04:12:00,
2013-09-29 00:42:00,44.2,43.0,30.16,SSW,194,6.0,-999.0,96,-99.99,,,0.00,weatherlink.com 1.10,2013-09-29 04:42:00,
2013-09-29 00:57:00,44.0,43.0,30.17,SSE,151,2.0,-999.0,97,-99.99,,,0.00,weatherlink.com 1.10,2013-09-29 04:57:00,
2013-09-29 01:12:00,43.9,43.0,30.17,SSE,150,4.0,-999.0,96,-99.99,,,0.00,weatherlink.com 1.10,2013-09-29 05:12:00,
2013-09-29 01:27:00,43.8,43.0,30.16,South,185,4.0,-999.0,96,-99.99,,,0.00,weatherlink.com 1.10,2013-09-29 05:27:00,
2013-09-29 01:42:00,43.6,43.0,30.17,South,175,2.0,-999.0,96,-99.99,,,0.00,weatherlink.com 1.10,2013-09-29 05:42:00,
2013-09-29 01:57:00,43.4,42.0,30.17,South,171,4.0,-999.0,96,-99.99,,,0.00,weatherlink.com 1.10,2013-09-29 05:57:00,
2013-09-29 02:12:00,43.2,42.0,30.16,SSE,160,4.0,-999.0,96,-99.99,,,0.00,weatherlink.com 1.10,2013-09-29 06:12:00,
2013-09-29 02:27:00,43.0,42.0,30.16,SSE,168,4.0,-999.0,96,-99.99,,,0.00,weatherlink.com 1.10,2013-09-29 06:27:00,
2013-09-29 02:42:00,42.9,42.0,30.15,SSE,159,4.0,-999.0,96,-99.99,,,0.00,weatherlink.com 1.10,2013-09-29 06:42:00,
2013-09-29 02:57:00,42.9,42.0,30.15,South,175,8.0,-999.0,96,-99.99,,,0.00,weatherlink.com 1.10,2013-09-29 06:57:00,
2013-09-29 03:12:00,42.9,42.0,30.14,South,171,1.0,-999.0,96,-99.99,,,0.00,weatherlink.com 1.10,2013-09-29 07:12:00,
2013-09-29 03:27:00,42.6,42.0,30.14,South,175,4.0,-999.0,96,-99.99,,,0.00,weatherlink.com 1.10,2013-09-29 07:27:00,
2013-09-29 03:42:00,42.6,42.0,30.14,SSE,163,0.0,-999.0,96,-99.99,,,0.00,weatherlink.com 1.10,2013-09-29 07:42:00,
2013-09-29 03:57:00,42.4,41.0,30.13,SSE,153,2.0,-999.0,96,-99.99,,,0.00,weatherlink.com 1.10,2013-09-29 07:57:00,
2013-09-29 04:12:00,42.2,41.0,30.13,SE,146,0.0,-999.0,96,-99.99,,,0.00,weatherlink.com 1.10,2013-09-29 08:12:00,
2013-09-29 04:27:00,41.9,41.0,30.14,SSE,159,0.0,-999.0,96,-99.99,,,0.00,weatherlink.com 1.10,2013-09-29 08:27:00,
2013-09-29 04:42:00,42.0,41.0,30.14,SSE,163,1.0,-999.0,96,-99.99,,,0.00,weatherlink.com 1.10,2013-09-29 08:42:00,
2013-09-29 04:57:00,41.9,41.0,30.14,SSE,163,0.0,-999.0,96,-99.99,,,0.00,weatherlink.com 1.10,2013-09-29 08:57:00,
2013-09-29 05:12:00,41.7,41.0,30.14,SSE,163,0.0,-999.0,96,-99.99,,,0.00,weatherlink.com 1.10,2013-09-29 09:12:00,
2013-09-29 05:27:00,41.6,40.0,30.15,SSE,163,5.0,-999.0,95,-99.99,,,0.00,weatherlink.com 1.10,2013-09-29 09:27:00,
2013-09-29 05:43:00,42.0,41.0,30.14,SSE,166,5.0,-999.0,95,-99.99,,,0.00,weatherlink.com 1.10,2013-09-29 09:43:00,
2013-09-29 05:58:00,42.3,41.0,30.14,South,169,1.0,-999.0,95,-99.99,,,0.00,weatherlink.com 1.10,2013-09-29 09:58:00,
2013-09-29 06:13:00,42.3,41.0,30.14,South,169,2.0,-999.0,95,-99.99,,,0.00,weatherlink.com 1.10,2013-09-29 10:13:00,
2013-09-29 06:28:00,42.9,42.0,30.14,SSW,210,7.0,-999.0,95,-99.99,,,0.00,weatherlink.com 1.10,2013-09-29 10:28:00,
2013-09-29 06:43:00,43.4,42.0,30.14,SW,220,4.0,-999.0,94,-99.99,,,0.00,weatherlink.com 1.10,2013-09-29 10:43:00,
2013-09-29 06:58:00,43.5,42.0,30.15,SW,227,8.0,-999.0,94,-99.99,,,0.00,weatherlink.com 1.10,2013-09-29 10:58:00,
2013-09-29 07:13:00,43.5,42.0,30.15,SW,214,4.0,-999.0,94,-99.99,,,0.00,weatherlink.com 1.10,2013-09-29 11:13:00,
2013-09-29 07:28:00,43.8,43.0,30.15,SW,215,5.0,-999.0,95,-99.99,,,0.00,weatherlink.com 1.10,2013-09-29 11:28:00,
2013-09-29 07:43:00,44.0,42.0,30.15,SW,216,4.0,-999.0,94,-99.99,,,0.00,weatherlink.com 1.10,2013-09-29 11:43:00,
2013-09-29 07:58:00,44.8,43.0,30.15,SW,221,6.0,-999.0,94,-99.99,,,0.00,weatherlink.com 1.10,2013-09-29 11:58:00,
2013-09-29 08:13:00,45.6,44.0,30.15,SW,225,0.0,-999.0,93,-99.99,,,0.00,weatherlink.com 1.10,2013-09-29 12:13:00,
2013-09-29 08:28:00,46.6,45.0,30.15,SW,225,0.0,-999.0,93,-99.99,,,0.00,weatherlink.com 1.10,2013-09-29 12:28:00,
2013-09-29 08:43:00,46.9,45.0,30.15,SW,225,0.0,-999.0,91,-99.99,,,0.00,weatherlink.com 1.10,2013-09-29 12:43:00,
2013-09-29 08:58:00,47.4,45.0,30.15,SW,225,0.0,-999.0,91,-99.99,,,0.00,weatherlink.com 1.10,2013-09-29 12:58:00,
2013-09-29 09:13:00,49.5,47.0,30.15,SW,225,0.0,-999.0,90,-99.99,,,0.00,weatherlink.com 1.10,2013-09-29 13:13:00,
2013-09-29 09:28:00,51.2,48.0,30.15,SW,225,0.0,-999.0,88,-99.99,,,0.00,weatherlink.com 1.10,2013-09-29 13:28:00,
2013-09-29 09:43:00,53.1,49.0,30.15,SW,225,0.0,-999.0,85,-99.99,,,0.00,weatherlink.com 1.10,2013-09-29 13:43:00,
2013-09-29 09:58:00,54.2,49.0,30.14,SW,225,0.0,-999.0,83,-99.99,,,0.00,weatherlink.com 1.10,2013-09-29 13:58:00,
2013-09-29 10:13:00,54.2,49.0,30.14,SW,228,0.0,-999.0,83,-99.99,,,0.00,weatherlink.com 1.10,2013-09-29 14:13:00,
2013-09-29 10:28:00,54.0,49.0,30.14,WNW,294,7.0,-999.0,84,-99.99,,,0.00,weatherlink.com 1.10,2013-09-29 14:28:00,
2013-09-29 10:43:00,53.6,49.0,30.14,NW,315,6.0,-999.0,85,-99.99,,,0.00,weatherlink.com 1.10,2013-09-29 14:43:00,
2013-09-29 10:58:00,54.3,50.0,30.14,NW,322,6.0,-999.0,85,-99.99,,,0.00,weatherlink.com 1.10,2013-09-29 14:58:00,
2013-09-29 11:13:00,54.7,50.0,30.14,NW,320,4.0,-999.0,84,-99.99,,,0.00,weatherlink.com 1.10,2013-09-29 15:13:00,
2013-09-29 11:28:00,55.0,49.0,30.13,NNW,338,5.0,-999.0,80,-99.99,,,0.00,weatherlink.com 1.10,2013-09-29 15:28:00,
2013-09-29 11:43:00,55.4,49.0,30.12,WSW,257,8.0,-999.0,79,-99.99,,,0.00,weatherlink.com 1.10,2013-09-29 15:43:00,
2013-09-29 11:58:00,55.5,49.0,30.12,NW,325,6.0,-999.0,78,-99.99,,,0.00,weatherlink.com 1.10,2013-09-29 15:58:00,
2013-09-29 12:13:00,56.4,49.0,30.13,NNW,329,6.0,-999.0,76,-99.99,,,0.00,weatherlink.com 1.10,2013-09-29 16:13:00,
2013-09-29 12:28:00,57.3,49.0,30.12,NW,305,7.0,-999.0,73,-99.99,,,0.00,weatherlink.com 1.10,2013-09-29 16:28:00,
2013-09-29 12:43:00,58.1,48.0,30.12,NNW,327,11.0,-999.0,69,-99.99,,,0.00,weatherlink.com 1.10,2013-09-29 16:43:00,
2013-09-29 12:58:00,58.3,49.0,30.12,NW,323,4.0,-999.0,70,-99.99,,,0.00,weatherlink.com 1.10,2013-09-29 16:58:00,
2013-09-29 13:13:00,58.2,49.0,30.11,NW,308,0.0,-999.0,71,-99.99,,,0.00,weatherlink.com 1.10,2013-09-29 17:13:00,
2013-09-29 13:28:00,57.6,47.0,30.11,NNW,344,2.0,-999.0,69,-99.99,,,0.00,weatherlink.com 1.10,2013-09-29 17:28:00,
2013-09-29 13:43:00,58.7,49.0,30.10,NNW,334,6.0,-999.0,70,-99.99,,,0.00,weatherlink.com 1.10,2013-09-29 17:43:00,
2013-09-29 13:58:00,59.0,48.0,30.10,NNW,339,8.0,-999.0,68,-99.99,,,0.00,weatherlink.com 1.10,2013-09-29 17:58:00,
2013-09-29 14:13:00,59.8,48.0,30.09,NW,324,4.0,-999.0,65,-99.99,,,0.00,weatherlink.com 1.10,2013-09-29 18:13:00,
2013-09-29 14:28:00,58.0,48.0,30.09,North,350,0.0,-999.0,70,-99.99,,,0.00,weatherlink.com 1.10,2013-09-29 18:28:00,
2013-09-29 14:43:00,58.2,49.0,30.08,North,349,0.0,-999.0,71,-99.99,,,0.00,weatherlink.com 1.10,2013-09-29 18:43:00,
2013-09-29 14:58:00,58.8,49.0,30.08,NW,310,6.0,-999.0,70,-99.99,,,0.00,weatherlink.com 1.10,2013-09-29 18:58:00,
2013-09-29 15:13:00,59.8,49.0,30.07,NW,315,4.0,-999.0,67,-99.99,,,0.00,weatherlink.com 1.10,2013-09-29 19:13:00,
2013-09-29 15:28:00,59.0,48.0,30.07,NW,316,5.0,-999.0,66,-99.99,,,0.00,weatherlink.com 1.10,2013-09-29 19:28:00,
2013-09-29 15:43:00,58.8,49.0,30.07,NW,316,0.0,-999.0,69,-99.99,,,0.00,weatherlink.com 1.10,2013-09-29 19:43:00,
2013-09-29 15:58:00,58.8,48.0,30.07,NW,304,2.0,-999.0,68,-99.99,,,0.00,weatherlink.com 1.10,2013-09-29 19:58:00,
2013-09-29 16:13:00,59.2,48.0,30.07,NW,308,4.0,-999.0,66,-99.99,,,0.00,weatherlink.com 1.10,2013-09-29 20:13:00,
2013-09-29 16:28:00,59.3,49.0,30.07,NW,315,5.0,-999.0,69,-99.99,,,0.00,weatherlink.com 1.10,2013-09-29 20:28:00,
2013-09-29 16:43:00,58.4,49.0,30.07,NW,316,0.0,-999.0,70,-99.99,,,0.00,weatherlink.com 1.10,2013-09-29 20:43:00,
2013-09-29 16:58:00,58.1,48.0,30.06,NW,318,5.0,-999.0,70,-99.99,,,0.00,weatherlink.com 1.10,2013-09-29 20:58:00,
2013-09-29 17:13:00,57.8,50.0,30.06,NW,318,6.0,-999.0,75,-99.99,,,0.00,weatherlink.com 1.10,2013-09-29 21:13:00,
2013-09-29 17:28:00,57.3,50.0,30.07,NW,319,2.0,-999.0,77,-99.99,,,0.00,weatherlink.com 1.10,2013-09-29 21:28:00,
2013-09-29 17:43:00,57.8,51.0,30.07,NNW,333,4.0,-999.0,77,-99.99,,,0.00,weatherlink.com 1.10,2013-09-29 21:43:00,
2013-09-29 17:58:00,57.7,51.0,30.07,NW,315,4.0,-999.0,77,-99.99,,,0.00,weatherlink.com 1.10,2013-09-29 21:58:00,
2013-09-29 18:13:00,56.4,50.0,30.07,NW,318,4.0,-999.0,80,-99.99,,,0.00,weatherlink.com 1.10,2013-09-29 22:13:00,
2013-09-29 18:28:00,56.1,50.0,30.07,NW,318,0.0,-999.0,81,-99.99,,,0.00,weatherlink.com 1.10,2013-09-29 22:28:00,
2013-09-29 18:43:00,56.2,51.0,30.06,NW,318,0.0,-999.0,83,-99.99,,,0.00,weatherlink.com 1.10,2013-09-29 22:43:00,
2013-09-29 18:58:00,55.8,51.0,30.06,NW,318,0.0,-999.0,84,-99.99,,,0.00,weatherlink.com 1.10,2013-09-29 22:58:00,
2013-09-29 19:13:00,54.9,51.0,30.06,NW,318,0.0,-999.0,86,-99.99,,,0.00,weatherlink.com 1.10,2013-09-29 23:13:00,
2013-09-29 19:28:00,54.0,50.0,30.06,NW,318,0.0,-999.0,87,-99.99,,,0.00,weatherlink.com 1.10,2013-09-29 23:28:00,
2013-09-29 19:43:00,53.4,50.0,30.06,NW,318,0.0,-999.0,88,-99.99,,,0.00,weatherlink.com 1.10,2013-09-29 23:43:00,
2013-09-29 19:58:00,53.3,50.0,30.06,NW,318,0.0,-999.0,88,-99.99,,,0.00,weatherlink.com 1.10,2013-09-29 23:58:00,
2013-09-29 20:13:00,52.9,50.0,30.07,NW,319,0.0,-999.0,88,-99.99,,,0.00,weatherlink.com 1.10,2013-09-30 00:13:00,
2013-09-29 20:28:00,52.6,49.0,30.07,NW,317,2.0,-999.0,88,-99.99,,,0.00,weatherlink.com 1.10,2013-09-30 00:28:00,
2013-09-29 20:43:00,52.3,49.0,30.07,NW,315,2.0,-999.0,87,-99.99,,,0.00,weatherlink.com 1.10,2013-09-30 00:43:00,
2013-09-29 20:58:00,52.4,49.0,30.07,WNW,298,0.0,-999.0,87,-99.99,,,0.00,weatherlink.com 1.10,2013-09-30 00:58:00,
2013-09-29 21:13:00,51.9,48.0,30.07,West,281,0.0,-999.0,87,-99.99,,,0.00,weatherlink.com 1.10,2013-09-30 01:13:00,
2013-09-29 21:28:00,51.3,48.0,30.06,West,281,0.0,-999.0,89,-99.99,,,0.00,weatherlink.com 1.10,2013-09-30 01:28:00,
2013-09-29 21:43:00,50.6,48.0,30.07,West,281,0.0,-999.0,90,-99.99,,,0.00,weatherlink.com 1.10,2013-09-30 01:43:00,
2013-09-29 21:57:00,50.2,47.0,30.07,West,280,0.0,-999.0,90,-99.99,,,0.00,weatherlink.com 1.10,2013-09-30 01:57:00,
2013-09-29 22:12:00,50.0,48.0,30.07,West,279,0.0,-999.0,91,-99.99,,,0.00,weatherlink.com 1.10,2013-09-30 02:12:00,
2013-09-29 22:27:00,49.9,47.0,30.07,West,277,0.0,-999.0,91,-99.99,,,0.00,weatherlink.com 1.10,2013-09-30 02:27:00,
2013-09-29 22:42:00,49.5,47.0,30.07,West,277,0.0,-999.0,91,-99.99,,,0.00,weatherlink.com 1.10,2013-09-30 02:42:00,
2013-09-29 22:57:00,49.2,47.0,30.07,West,276,0.0,-999.0,92,-99.99,,,0.00,weatherlink.com 1.10,2013-09-30 02:57:00,
2013-09-29 23:12:00,49.3,47.0,30.07,West,271,4.0,-999.0,93,-99.99,,,0.00,weatherlink.com 1.10,2013-09-30 03:12:00,
2013-09-29 23:27:00,49.6,47.0,30.07,West,269,2.0,-999.0,92,-99.99,,,0.00,weatherlink.com 1.10,2013-09-30 03:27:00,
2013-09-29 23:42:00,49.5,47.0,30.07,West,265,0.0,-999.0,92,-99.99,,,0.00,weatherlink.com 1.10,2013-09-30 03:42:00,
2013-09-29 23:57:00,49.4,47.0,30.07,West,264,4.0,-999.0,92,-99.99,,,0.00,weatherlink.com 1.10,2013-09-30 03:57:00,